Aeroporto :
LOGIN :

Iscrizione | Disclaimer

   EN    FR    IT 

 










Sommario :    VFR   VFR Marginale   IFR   IFR Intensivo   IFR Molto Intensivo
Visibilità : 
Base nubi : 
>= 8 km
>= 3000ft
5 / 8 km
1000 / 3000 ft
1500m / 5 km
500 / 1000 ft
800 / 1500m
200 / 500 ft
< 800m
< 200 ft
Simboli :   Temporali  Nebbia  Neve Forte  Precipitazioni Forti  Vento > 20 kt
SIGMETs :   Varie  Temporali  Ghiacco  Turbolenza  Onda orograficha  Ceneri Vulcaniche






- Altitudine del aeroporto : 526 ft
- Codice IATA : LTN


EGGW - London Luton

ULTIMO METAR :
  • 091820Z AUTO 36006KT 320V030 8000 -RA OVC003 15/14 Q1010

METARs OBSOLETI :
  • 091750Z AUTO 36006KT 6000 -RA BKN003/// OVC017/// //////TCU 15/14 Q1010 RERA
  • 091720Z AUTO 03005KT 350V050 9999 -RA BKN003 OVC016 15/14 Q1010
  • 091650Z AUTO 02006KT 340V060 9999 -RA BKN004/// BKN011/// OVC027/// //////TCU 16/15 Q1010
  • 091620Z AUTO 21006KT 9999 FEW015 BKN027 BKN046 18/16 Q1010
  • 091550Z AUTO 22007KT 180V250 9999 -RA BKN009 BKN014 OVC029 18/16 Q1010

TAF TAF EGGW
Valido dal 09 a 18 ore il 10 a 18 ore UTC


091704Z 0918/1018 02008KT 9999 FEW010 BKN015
TEMPO 0918/1006 2000 RADZ BKN003
BECMG 0921/0924 32010KT 7000 -RADZ BKN006
PROB40
TEMPO 0921/1006 1200 BR BKN001
BECMG 1006/1009 9999 NSW FEW012 SCT030
PROB30
TEMPO 1009/1018 6000 SHRA
PROB30
TEMPO 1012/1018 32015G25KT
ATIS : +44 1582 395 204



MetMap, La meteo Aeronautica in un colpo d'occhio ! - Copyright ORBIFLY Dicembre 2007 - Disclaimer

ORBIFLY MET'MAP TEAM :

Programmazione e sviluppo : Alexandra Zaïnal
Concezione : Baudouin d'Aumeries
Aiuto per la programmazione : Marc-Olivier Méhu
Supporto tecnico e logistico : Manuel Goepfert
Aiuto per la traduzione : Arnaldo La Scala

Contatto : metmap@orbifly.com




FONTI E CREDITI :

   NOAA